Time;durP1;ratioP1;P1;durP2;ratioP2;P2;SDS_P1;SDS_P2;PMS_P1;PMS_P2;Temp;Humidity;BMP_temperature;BMP_pressure;BME280_temperature;BME280_humidity;BME280_pressure;Samples;Min_cycle;Max_cycle;Signal;HPM_P1;HPM_P2
2023/11/09 00:00:30;;;;;;;1.80;1.70;;;9.90;99.90;;;;;;5065924;28;20214;-82
2023/11/09 00:02:58;;;;;;;2.43;1.90;;;9.80;99.90;;;;;;5073289;28;20216;-82
2023/11/09 00:05:25;;;;;;;3.77;2.03;;;9.90;99.90;;;;;;5078917;28;20209;-81
2023/11/09 00:07:51;;;;;;;2.97;1.83;;;9.90;99.90;;;;;;5089434;28;20760;-81
2023/11/09 00:10:18;;;;;;;2.73;2.03;;;9.90;99.90;;;;;;5090879;28;20210;-81
2023/11/09 00:12:50;;;;;;;3.20;1.80;;;9.80;99.90;;;;;;5071080;28;20206;-81
2023/11/09 00:15:18;;;;;;;4.80;2.20;;;9.80;1.00;;;;;;5065383;28;20244;-82
2023/11/09 00:17:45;;;;;;;3.57;2.20;;;9.80;1.00;;;;;;5084555;28;20915;-82
2023/11/09 00:20:17;;;;;;;2.17;1.90;;;9.70;1.00;;;;;;5079675;28;20204;-81
2023/11/09 00:22:46;;;;;;;2.60;1.50;;;9.70;1.00;;;;;;5084635;28;20206;-82
2023/11/09 00:25:14;;;;;;;2.60;2.00;;;9.60;1.00;;;;;;5084825;28;20209;-81
2023/11/09 00:27:41;;;;;;;4.37;2.00;;;9.60;99.90;;;;;;5063833;28;20300;-81
2023/11/09 00:30:09;;;;;;;4.37;2.00;;;9.50;99.90;;;;;;5069870;28;20289;-81
2023/11/09 00:32:36;;;;;;;3.37;1.90;;;9.50;1.00;;;;;;5072061;28;20670;-82
2023/11/09 00:35:04;;;;;;;3.50;2.10;;;9.50;1.00;;;;;;5084362;28;20662;-82
2023/11/09 00:37:33;;;;;;;3.83;1.83;;;9.40;1.00;;;;;;5076532;28;20225;-81
2023/11/09 00:40:00;;;;;;;2.27;1.93;;;9.40;99.90;;;;;;5084333;28;20206;-81
2023/11/09 00:42:27;;;;;;;3.70;1.97;;;9.30;1.00;;;;;;5079504;28;20206;-82
2023/11/09 00:44:54;;;;;;;3.43;2.00;;;9.30;1.00;;;;;;5072726;28;20225;-82
2023/11/09 00:47:21;;;;;;;2.53;1.77;;;9.30;1.00;;;;;;5073080;28;20264;-81
2023/11/09 00:49:48;;;;;;;3.37;1.80;;;9.40;1.00;;;;;;5064944;28;20894;-82
2023/11/09 00:52:15;;;;;;;3.17;2.10;;;9.30;99.90;;;;;;5086552;28;20209;-82
2023/11/09 00:54:43;;;;;;;6.47;2.70;;;9.40;99.90;;;;;;5080268;28;20207;-82
2023/11/09 00:57:10;;;;;;;3.70;2.07;;;9.30;98.80;;;;;;5068944;28;20224;-82
2023/11/09 00:59:37;;;;;;;4.93;2.13;;;9.40;18.80;;;;;;5078697;28;20613;-81
2023/11/09 01:02:04;;;;;;;2.43;2.10;;;9.30;1.00;;;;;;5090174;28;20207;-81
2023/11/09 01:04:31;;;;;;;3.00;2.60;;;9.30;99.90;;;;;;5090190;28;20197;-82
2023/11/09 01:06:58;;;;;;;3.87;1.83;;;9.30;1.00;;;;;;5090654;28;20242;-81
2023/11/09 01:09:25;;;;;;;3.70;1.80;;;9.30;99.90;;;;;;5090629;28;20210;-81
2023/11/09 01:11:53;;;;;;;3.37;1.90;;;9.30;99.90;;;;;;5071787;28;20203;-81
2023/11/09 01:14:20;;;;;;;3.57;2.00;;;9.40;99.90;;;;;;5076949;28;20202;-81
2023/11/09 01:16:47;;;;;;;4.90;2.10;;;9.30;1.00;;;;;;5080828;28;20238;-82
2023/11/09 01:19:14;;;;;;;5.33;1.93;;;9.30;99.90;;;;;;5078479;28;20201;-82
2023/11/09 01:21:41;;;;;;;3.20;1.80;;;9.30;1.00;;;;;;5089593;28;20202;-82
2023/11/09 01:24:08;;;;;;;4.93;1.90;;;9.30;1.00;;;;;;5090975;28;20217;-81
2023/11/09 01:26:35;;;;;;;4.63;2.00;;;9.30;1.00;;;;;;5070578;28;20230;-81
2023/11/09 01:29:03;;;;;;;1.80;1.63;;;9.30;1.00;;;;;;5068123;28;20231;-80
2023/11/09 01:31:31;;;;;;;3.43;2.00;;;9.30;84.50;;;;;;5084863;28;20206;-81
2023/11/09 01:33:57;;;;;;;6.13;2.43;;;9.20;99.90;;;;;;5089836;28;20662;-81
2023/11/09 01:36:24;;;;;;;4.93;2.10;;;9.20;1.00;;;;;;5075616;28;20313;-81
2023/11/09 01:38:51;;;;;;;4.10;2.40;;;9.20;99.90;;;;;;5084242;28;20213;-82
2023/11/09 01:41:18;;;;;;;5.23;2.50;;;9.20;1.00;;;;;;5089184;28;20289;-81
2023/11/09 01:43:55;;;;;;;3.57;2.10;;;9.10;99.90;;;;;;5072051;28;20241;-81
2023/11/09 01:46:23;;;;;;;2.10;1.90;;;9.10;99.90;;;;;;5073960;28;20226;-81
2023/11/09 01:48:51;;;;;;;3.10;2.00;;;9.10;99.90;;;;;;5083554;28;20218;-81
2023/11/09 01:51:20;;;;;;;4.27;2.53;;;9.10;4.20;;;;;;5069993;28;20634;-80
2023/11/09 01:53:48;;;;;;;2.20;2.00;;;9.10;1.00;;;;;;5078428;28;20261;-81
2023/11/09 01:56:15;;;;;;;3.20;2.10;;;9.00;1.00;;;;;;5088710;28;20232;-81
2023/11/09 01:58:43;;;;;;;3.30;2.17;;;9.20;1.00;;;;;;5072657;28;20202;-81
2023/11/09 02:01:12;;;;;;;2.17;1.77;;;9.20;5.80;;;;;;5079443;28;20207;-80
2023/11/09 02:03:41;;;;;;;2.50;1.83;;;9.30;99.90;;;;;;5076680;28;20227;-81
2023/11/09 02:06:09;;;;;;;3.93;2.20;;;9.20;99.90;;;;;;5077869;28;20723;-80
2023/11/09 02:08:36;;;;;;;2.00;1.90;;;9.10;99.90;;;;;;5066270;28;20226;-81
2023/11/09 02:11:03;;;;;;;2.20;1.80;;;9.10;99.90;;;;;;5086785;28;20213;-81
2023/11/09 02:13:32;;;;;;;3.23;2.13;;;9.20;1.00;;;;;;5086563;28;20209;-82
2023/11/09 02:15:59;;;;;;;3.70;2.10;;;9.20;1.00;;;;;;5081442;28;20560;-83
2023/11/09 02:18:27;;;;;;;3.93;2.07;;;9.20;1.00;;;;;;5073872;28;20210;-81
2023/11/09 02:20:55;;;;;;;2.37;1.90;;;9.20;52.40;;;;;;5084961;28;20213;-81
2023/11/09 02:23:24;;;;;;;5.10;2.23;;;9.20;1.00;;;;;;5083071;28;20206;-81
2023/11/09 02:25:53;;;;;;;3.37;2.00;;;9.20;1.00;;;;;;5075570;28;20207;-81
2023/11/09 02:28:20;;;;;;;3.07;2.00;;;9.20;1.00;;;;;;5075755;28;20218;-80
2023/11/09 02:30:46;;;;;;;2.00;1.80;;;9.20;83.90;;;;;;5081540;28;20669;-81
2023/11/09 02:33:13;;;;;;;2.27;1.70;;;9.20;99.90;;;;;;5079899;28;20202;-82
2023/11/09 02:35:40;;;;;;;3.87;1.80;;;9.20;99.90;;;;;;5082785;28;20229;-81
2023/11/09 02:38:08;;;;;;;2.30;1.90;;;9.20;99.90;;;;;;5085499;28;20229;-81
2023/11/09 02:40:35;;;;;;;3.07;2.03;;;9.20;1.00;;;;;;5087204;28;20563;-80
2023/11/09 02:43:04;;;;;;;6.57;2.10;;;9.30;1.00;;;;;;5082541;28;20242;-81
2023/11/09 02:45:30;;;;;;;3.40;2.00;;;9.20;37.00;;;;;;5079380;28;20218;-81
2023/11/09 02:47:57;;;;;;;2.10;1.90;;;9.10;86.80;;;;;;5059856;28;20234;-81
2023/11/09 02:50:24;;;;;;;2.47;2.00;;;9.30;1.00;;;;;;5062690;28;20630;-81
2023/11/09 02:52:51;;;;;;;2.37;2.00;;;9.10;99.90;;;;;;5067183;28;20261;-80
2023/11/09 02:55:19;;;;;;;3.80;1.90;;;9.10;99.90;;;;;;5068034;28;20202;-81
2023/11/09 02:57:45;;;;;;;5.23;2.07;;;9.10;1.00;;;;;;5071706;28;20229;-80
2023/11/09 03:00:14;;;;;;;4.27;2.10;;;9.10;8.70;;;;;;5079113;28;20688;-80
2023/11/09 03:02:41;;;;;;;3.27;2.40;;;9.20;1.00;;;;;;5064372;28;20593;-80
2023/11/09 03:05:08;;;;;;;2.23;1.87;;;9.20;99.90;;;;;;5078092;28;20202;-80
2023/11/09 03:07:35;;;;;;;2.00;1.80;;;9.20;99.90;;;;;;5069747;28;20728;-81
2023/11/09 03:10:02;;;;;;;2.40;2.20;;;9.20;52.20;;;;;;5077815;28;20202;-81
2023/11/09 03:12:29;;;;;;;2.30;2.10;;;9.20;99.90;;;;;;5062748;28;20294;-80
2023/11/09 03:14:57;;;;;;;4.03;2.20;;;9.20;99.90;;;;;;5066272;28;20211;-81
2023/11/09 03:17:25;;;;;;;3.20;2.00;;;9.10;99.90;;;;;;5063343;28;20253;-82
2023/11/09 03:19:53;;;;;;;3.37;2.10;;;9.20;99.90;;;;;;5075571;28;20211;-82
2023/11/09 03:22:19;;;;;;;3.37;2.23;;;9.10;26.40;;;;;;5074477;28;20219;-82
2023/11/09 03:24:46;;;;;;;3.30;1.83;;;9.10;1.00;;;;;;5072183;28;20633;-82
2023/11/09 03:27:13;;;;;;;3.97;2.30;;;9.20;1.00;;;;;;5068438;28;20222;-82
2023/11/09 03:29:40;;;;;;;2.37;1.93;;;9.10;99.90;;;;;;5063107;28;20218;-81
2023/11/09 03:32:09;;;;;;;3.73;2.20;;;9.20;22.50;;;;;;5068172;28;20203;-82
2023/11/09 03:34:38;;;;;;;4.37;2.30;;;9.10;1.00;;;;;;5065012;28;20263;-81
2023/11/09 03:37:05;;;;;;;3.63;2.23;;;9.10;1.00;;;;;;5081178;28;20229;-82
2023/11/09 03:39:34;;;;;;;4.10;2.23;;;9.10;99.90;;;;;;5083558;28;20284;-81
2023/11/09 03:42:01;;;;;;;3.73;2.40;;;9.00;99.90;;;;;;5064541;28;20564;-82
2023/11/09 03:44:33;;;;;;;4.37;2.17;;;9.00;99.90;;;;;;5069871;28;20208;-82
2023/11/09 03:46:59;;;;;;;3.50;2.50;;;9.00;99.90;;;;;;5079954;28;20233;-82
2023/11/09 03:49:26;;;;;;;4.00;2.23;;;9.00;99.90;;;;;;5071260;28;20225;-82
2023/11/09 03:51:54;;;;;;;3.37;2.10;;;9.00;1.00;;;;;;5078766;28;20206;-83
2023/11/09 03:54:21;;;;;;;3.83;2.40;;;9.00;99.90;;;;;;5067753;28;20207;-82
2023/11/09 03:56:48;;;;;;;2.83;2.00;;;9.00;99.90;;;;;;5068224;28;20284;-82
2023/11/09 03:59:14;;;;;;;4.03;2.27;;;9.00;99.90;;;;;;5067306;28;20203;-82
2023/11/09 04:01:41;;;;;;;4.57;2.67;;;9.00;1.00;;;;;;5076321;28;20203;-82
2023/11/09 04:04:08;;;;;;;4.30;2.00;;;9.00;1.00;;;;;;5070312;28;20207;-82
2023/11/09 04:06:35;;;;;;;3.33;2.20;;;9.00;11.80;;;;;;5065125;28;20222;-82
2023/11/09 04:09:05;;;;;;;4.57;2.03;;;9.00;1.00;;;;;;5082241;28;20267;-82
2023/11/09 04:11:32;;;;;;;2.87;2.17;;;9.00;1.00;;;;;;5083622;28;20680;-83
2023/11/09 04:13:59;;;;;;;6.10;2.23;;;9.10;99.90;;;;;;5065333;28;20578;-83
2023/11/09 04:16:26;;;;;;;6.23;2.50;;;9.10;1.00;;;;;;5082306;28;20248;-84
2023/11/09 04:18:53;;;;;;;2.67;1.90;;;9.10;1.00;;;;;;5089229;28;20199;-83
2023/11/09 04:21:20;;;;;;;4.77;3.10;;;9.10;99.90;;;;;;5083886;28;20213;-84
2023/11/09 04:23:49;;;;;;;5.20;2.23;;;9.20;99.90;;;;;;5062504;28;20758;-83
2023/11/09 04:26:17;;;;;;;4.00;2.17;;;9.20;1.00;;;;;;5073262;28;20254;-83
2023/11/09 04:28:44;;;;;;;5.83;2.53;;;9.20;1.00;;;;;;5076209;28;20685;-83
2023/11/09 04:31:11;;;;;;;1.93;1.70;;;9.20;1.00;;;;;;5085573;28;20607;-79
2023/11/09 04:33:38;;;;;;;2.50;1.67;;;9.20;1.00;;;;;;5087373;28;20206;-81
2023/11/09 04:36:08;;;;;;;4.43;2.73;;;9.10;1.00;;;;;;5085330;28;20208;-81
2023/11/09 04:38:37;;;;;;;3.13;2.10;;;9.20;1.00;;;;;;5067182;28;20226;-82
2023/11/09 04:41:09;;;;;;;3.63;2.00;;;9.20;1.00;;;;;;5069566;28;20207;-81
2023/11/09 04:43:39;;;;;;;2.77;1.80;;;9.20;1.00;;;;;;5076849;28;20205;-81
2023/11/09 04:46:10;;;;;;;4.00;1.83;;;9.20;99.90;;;;;;5083984;28;20205;-81
2023/11/09 04:48:44;;;;;;;1.83;1.63;;;9.20;1.00;;;;;;5082482;28;20228;-81
2023/11/09 04:51:20;;;;;;;2.27;2.07;;;9.20;1.00;;;;;;5069378;28;20203;-81
2023/11/09 04:53:51;;;;;;;3.20;2.10;;;9.20;99.90;;;;;;5084469;28;20228;-80
2023/11/09 04:56:32;;;;;;;2.17;1.60;;;9.30;99.90;;;;;;5081576;28;20233;-79
2023/11/09 04:59:03;;;;;;;3.97;1.93;;;9.30;99.90;;;;;;5063424;28;20210;-80
2023/11/09 05:06:59;;;;;;;4.57;2.00;;;9.30;87.00;;;;;;5075760;28;20297;-81
2023/11/09 05:09:27;;;;;;;2.40;2.17;;;9.30;1.00;;;;;;5074680;28;20226;-82
2023/11/09 05:11:54;;;;;;;3.03;2.20;;;9.20;59.70;;;;;;5075815;28;20202;-82
2023/11/09 05:14:22;;;;;;;3.00;2.00;;;9.30;1.00;;;;;;5084656;28;20594;-82
2023/11/09 05:16:49;;;;;;;3.63;2.20;;;9.30;1.00;;;;;;5077332;28;20280;-81
2023/11/09 05:19:16;;;;;;;2.70;2.07;;;9.20;1.00;;;;;;5071052;28;20256;-81
2023/11/09 05:21:43;;;;;;;3.73;2.10;;;9.20;1.00;;;;;;5082090;28;20206;-81
2023/11/09 05:24:10;;;;;;;4.70;2.10;;;9.20;1.00;;;;;;5069004;28;20218;-81
2023/11/09 05:26:38;;;;;;;2.30;2.10;;;9.20;1.00;;;;;;5071073;28;20221;-82
2023/11/09 05:29:05;;;;;;;3.97;2.00;;;9.20;1.00;;;;;;5086779;28;20649;-82
2023/11/09 05:31:35;;;;;;;3.43;2.20;;;9.20;1.00;;;;;;5066377;28;20210;-81
2023/11/09 05:34:03;;;;;;;2.37;2.00;;;9.10;1.00;;;;;;5073075;28;20203;-82
2023/11/09 05:36:33;;;;;;;2.50;1.90;;;9.20;26.70;;;;;;5080615;28;20242;-82
2023/11/09 05:39:00;;;;;;;4.13;2.50;;;9.20;1.00;;;;;;5065729;28;20252;-81
2023/11/09 05:41:29;;;;;;;3.17;2.40;;;9.20;1.00;;;;;;5070731;28;20211;-81
2023/11/09 05:43:56;;;;;;;2.97;2.23;;;9.30;1.00;;;;;;5071125;28;20207;-80
2023/11/09 05:46:22;;;;;;;2.83;2.60;;;9.30;1.00;;;;;;5071573;28;20676;-81
2023/11/09 05:48:51;;;;;;;2.70;2.13;;;9.30;1.00;;;;;;5068297;28;20257;-80
2023/11/09 05:51:21;;;;;;;4.63;2.00;;;9.30;1.00;;;;;;5072107;28;20817;-81
2023/11/09 05:53:48;;;;;;;3.50;2.00;;;9.30;1.00;;;;;;5078862;28;20321;-81
2023/11/09 05:56:15;;;;;;;3.67;2.00;;;9.40;1.00;;;;;;5070167;28;20222;-82
2023/11/09 05:58:42;;;;;;;2.77;2.07;;;9.30;1.00;;;;;;5062334;28;20199;-81
2023/11/09 06:01:10;;;;;;;3.73;2.20;;;9.40;1.00;;;;;;5080809;28;20202;-81
2023/11/09 06:03:37;;;;;;;3.60;2.10;;;9.40;1.00;;;;;;5069539;28;20634;-81
2023/11/09 06:06:06;;;;;;;3.47;2.00;;;9.40;99.90;;;;;;5075257;28;20581;-81
2023/11/09 06:08:34;;;;;;;3.07;1.93;;;9.50;99.90;;;;;;5082478;28;20202;-82
2023/11/09 06:11:01;;;;;;;3.10;2.23;;;9.40;99.90;;;;;;5079277;28;20198;-81
2023/11/09 06:13:28;;;;;;;5.30;2.27;;;9.40;99.90;;;;;;5066116;28;20210;-81
2023/11/09 06:15:55;;;;;;;3.50;2.20;;;9.40;99.90;;;;;;5072425;28;20642;-80
2023/11/09 06:18:23;;;;;;;2.37;2.07;;;9.40;99.90;;;;;;5080343;28;20233;-82
2023/11/09 06:20:52;;;;;;;3.03;2.00;;;9.40;99.90;;;;;;5060055;28;20641;-82
2023/11/09 06:23:22;;;;;;;3.90;2.03;;;9.40;99.90;;;;;;5068606;28;20212;-82
2023/11/09 06:25:51;;;;;;;2.90;2.20;;;9.50;99.90;;;;;;5066436;28;20215;-82
2023/11/09 06:28:18;;;;;;;2.80;2.17;;;9.50;99.90;;;;;;5076882;28;20621;-81
2023/11/09 06:30:45;;;;;;;2.73;2.30;;;9.50;99.90;;;;;;5075825;28;20233;-81
2023/11/09 06:33:11;;;;;;;2.73;2.10;;;9.50;99.90;;;;;;5075544;28;20212;-81
2023/11/09 06:35:39;;;;;;;3.70;2.10;;;9.70;99.90;;;;;;5077150;28;20198;-81
2023/11/09 06:38:08;;;;;;;2.63;1.90;;;9.50;99.90;;;;;;5066032;28;20229;-81
2023/11/09 06:40:36;;;;;;;2.70;2.00;;;9.50;99.90;;;;;;5070710;28;20206;-81
2023/11/09 06:43:03;;;;;;;3.90;2.10;;;9.60;99.90;;;;;;5077837;28;20276;-81
2023/11/09 06:45:31;;;;;;;2.37;2.00;;;9.50;99.90;;;;;;5073915;28;20212;-82
2023/11/09 06:47:58;;;;;;;4.40;2.13;;;9.60;98.40;;;;;;5072845;28;20226;-82
2023/11/09 06:50:25;;;;;;;7.17;2.17;;;9.50;99.90;;;;;;5063462;28;20677;-81
2023/11/09 06:52:55;;;;;;;2.57;2.07;;;9.50;99.90;;;;;;5071116;28;20206;-80
2023/11/09 06:55:22;;;;;;;2.53;2.10;;;9.50;99.90;;;;;;5072727;28;20566;-81
2023/11/09 06:57:53;;;;;;;2.87;1.70;;;9.60;87.50;;;;;;5067380;28;20302;-80
2023/11/09 07:00:21;;;;;;;4.30;2.37;;;9.60;3.60;;;;;;5076634;28;20256;-80
2023/11/09 07:02:49;;;;;;;3.73;1.97;;;9.60;74.00;;;;;;5077420;28;20669;-81
2023/11/09 07:05:16;;;;;;;5.17;2.07;;;9.60;71.20;;;;;;5061096;28;20207;-81
2023/11/09 07:07:43;;;;;;;2.67;2.13;;;9.60;91.50;;;;;;5061073;28;20754;-80
2023/11/09 07:10:10;;;;;;;3.03;2.00;;;9.60;99.90;;;;;;5077478;28;20222;-81
2023/11/09 07:12:38;;;;;;;2.70;1.90;;;9.70;14.40;;;;;;5075123;28;20206;-81
2023/11/09 07:15:08;;;;;;;2.57;1.63;;;9.60;98.00;;;;;;5062712;28;20203;-81
2023/11/09 07:17:35;;;;;;;2.27;1.87;;;9.60;99.90;;;;;;5065338;28;20235;-82
2023/11/09 07:20:02;;;;;;;1.97;1.80;;;9.60;99.90;;;;;;5075949;28;20198;-82
2023/11/09 07:22:29;;;;;;;5.00;2.07;;;9.60;99.90;;;;;;5078936;28;20267;-81
2023/11/09 07:24:57;;;;;;;3.73;2.00;;;9.70;32.30;;;;;;5072968;28;20203;-81
2023/11/09 07:27:24;;;;;;;3.10;2.00;;;9.70;1.00;;;;;;5077386;28;20230;-80
2023/11/09 07:29:51;;;;;;;2.13;1.90;;;9.80;1.00;;;;;;5068777;28;20219;-81
2023/11/09 07:32:19;;;;;;;2.60;2.10;;;9.80;1.00;;;;;;5062959;28;20202;-82
2023/11/09 07:34:46;;;;;;;4.37;2.00;;;9.80;1.00;;;;;;5060714;28;20205;-82
2023/11/09 07:37:13;;;;;;;2.50;2.10;;;9.70;1.00;;;;;;5067806;28;20244;-82
2023/11/09 07:39:42;;;;;;;2.23;2.00;;;9.70;10.40;;;;;;5067415;28;20255;-82
2023/11/09 07:42:09;;;;;;;2.37;1.70;;;9.70;1.00;;;;;;5076576;28;20203;-82
2023/11/09 07:44:35;;;;;;;3.20;2.00;;;9.70;1.00;;;;;;5078299;28;20201;-82
2023/11/09 07:47:02;;;;;;;2.57;2.03;;;9.70;1.00;;;;;;5071536;28;20740;-82
2023/11/09 07:49:31;;;;;;;3.03;1.83;;;9.70;1.00;;;;;;5074612;28;20226;-82
2023/11/09 07:51:58;;;;;;;2.90;2.20;;;9.70;1.00;;;;;;5077759;28;20661;-81
2023/11/09 07:54:25;;;;;;;3.17;1.90;;;9.70;1.00;;;;;;5058891;28;20211;-80
2023/11/09 07:56:52;;;;;;;3.13;2.00;;;9.80;1.00;;;;;;5056147;28;20744;-80
2023/11/09 07:59:19;;;;;;;4.53;2.23;;;9.90;1.00;;;;;;5056928;28;20217;-81
2023/11/09 08:01:46;;;;;;;2.70;2.10;;;9.90;1.00;;;;;;5076215;28;20209;-82
2023/11/09 08:04:12;;;;;;;2.33;2.10;;;9.80;1.00;;;;;;5060584;28;20209;-82
2023/11/09 08:06:42;;;;;;;4.90;1.87;;;9.80;1.00;;;;;;5065433;28;20222;-82
2023/11/09 08:09:12;;;;;;;4.73;2.00;;;9.90;1.00;;;;;;5069143;28;20215;-81
2023/11/09 08:11:42;;;;;;;1.87;1.77;;;9.90;1.00;;;;;;5068934;28;20238;-82
2023/11/09 08:14:08;;;;;;;2.00;1.80;;;9.90;1.00;;;;;;5068803;28;20285;-82
2023/11/09 08:16:35;;;;;;;3.17;1.90;;;9.90;1.00;;;;;;5058780;28;20230;-82
2023/11/09 08:19:03;;;;;;;3.73;2.00;;;9.90;1.00;;;;;;5075372;28;20198;-81
2023/11/09 08:21:32;;;;;;;3.57;2.00;;;10.00;1.00;;;;;;5074827;28;20553;-81
2023/11/09 08:24:00;;;;;;;2.03;1.60;;;10.00;1.00;;;;;;5055520;28;20211;-82
2023/11/09 08:26:27;;;;;;;2.33;2.13;;;10.00;1.00;;;;;;5067457;28;20713;-83
2023/11/09 08:28:54;;;;;;;2.47;2.17;;;10.10;1.00;;;;;;5074357;28;20580;-81
2023/11/09 08:31:21;;;;;;;3.20;1.90;;;10.10;1.00;;;;;;5066047;28;20760;-81
2023/11/09 08:33:49;;;;;;;3.53;1.97;;;10.10;1.00;;;;;;5074549;28;20210;-81
2023/11/09 08:36:16;;;;;;;2.80;1.97;;;10.10;1.00;;;;;;5068397;28;20770;-81
2023/11/09 08:38:43;;;;;;;2.27;1.90;;;10.20;1.00;;;;;;5074104;28;20202;-82
2023/11/09 08:41:11;;;;;;;3.23;2.13;;;10.20;1.00;;;;;;5069099;28;20210;-81
2023/11/09 08:43:39;;;;;;;3.77;2.20;;;10.20;1.00;;;;;;5059173;28;20212;-82
2023/11/09 08:46:06;;;;;;;4.03;1.80;;;10.30;1.00;;;;;;5074703;28;20198;-81
2023/11/09 08:48:33;;;;;;;2.63;1.97;;;10.30;1.00;;;;;;5075351;28;20209;-82
2023/11/09 08:51:18;;;;;;;3.37;2.03;;;10.30;1.00;;;;;;5093864;28;20226;-83
2023/11/09 08:53:46;;;;;;;3.10;1.70;;;10.40;1.00;;;;;;5084479;28;20210;-82
2023/11/09 08:56:14;;;;;;;1.90;1.70;;;10.30;1.00;;;;;;5072157;28;20313;-82
2023/11/09 08:58:41;;;;;;;4.47;2.37;;;10.30;1.00;;;;;;5076083;28;20662;-83
2023/11/09 09:01:16;;;;;;;4.13;2.10;;;10.30;1.00;;;;;;5081678;28;20225;-82
2023/11/09 09:03:44;;;;;;;4.33;2.23;;;10.20;1.00;;;;;;5075215;28;20213;-82
2023/11/09 09:06:12;;;;;;;2.30;2.00;;;10.20;1.00;;;;;;5092017;28;20229;-81
2023/11/09 09:08:39;;;;;;;6.33;2.23;;;10.20;1.00;;;;;;5097399;28;20685;-82
2023/11/09 09:11:07;;;;;;;2.40;1.90;;;10.20;1.00;;;;;;5088670;28;20633;-82
2023/11/09 09:13:35;;;;;;;5.53;1.90;;;10.20;1.00;;;;;;5073973;28;20213;-83
2023/11/09 09:16:02;;;;;;;2.57;1.90;;;10.20;1.00;;;;;;5071698;28;20715;-82
2023/11/09 09:18:30;;;;;;;3.83;1.70;;;10.20;99.90;;;;;;5076616;28;20301;-83
2023/11/09 09:20:57;;;;;;;3.77;2.00;;;10.00;99.90;;;;;;5067418;28;20203;-83
2023/11/09 09:23:24;;;;;;;4.27;1.80;;;10.10;99.90;;;;;;5078644;28;20214;-82
2023/11/09 09:25:52;;;;;;;2.77;2.00;;;10.00;1.00;;;;;;5084280;28;20241;-83
2023/11/09 09:28:19;;;;;;;1.83;1.67;;;9.90;1.00;;;;;;5076021;28;20587;-82
2023/11/09 09:30:49;;;;;;;3.07;1.70;;;9.90;1.00;;;;;;5074558;28;20222;-83
2023/11/09 09:33:16;;;;;;;1.80;1.70;;;9.90;1.00;;;;;;5062918;28;20206;-83
2023/11/09 09:35:43;;;;;;;2.60;1.97;;;9.80;1.00;;;;;;5065153;28;20674;-83
2023/11/09 09:38:11;;;;;;;2.27;1.40;;;9.80;1.00;;;;;;5089173;28;20311;-81
2023/11/09 09:40:38;;;;;;;2.80;1.73;;;9.80;1.00;;;;;;5094112;28;20267;-82
2023/11/09 09:43:07;;;;;;;3.07;1.70;;;9.80;1.00;;;;;;5087573;28;20206;-82
2023/11/09 09:45:34;;;;;;;2.50;1.73;;;9.80;1.00;;;;;;5072340;28;20320;-82
2023/11/09 09:48:03;;;;;;;2.00;1.50;;;9.70;1.00;;;;;;5074787;28;20222;-83
2023/11/09 09:50:33;;;;;;;2.40;1.73;;;9.80;99.90;;;;;;5080793;28;20312;-83
2023/11/09 09:53:02;;;;;;;2.20;1.50;;;9.70;82.30;;;;;;5064988;28;20206;-84
2023/11/09 09:55:29;;;;;;;2.30;1.73;;;9.60;1.00;;;;;;5083728;28;20565;-84
2023/11/09 09:57:57;;;;;;;3.60;1.67;;;9.70;1.00;;;;;;5086857;28;20226;-84
2023/11/09 10:00:26;;;;;;;2.57;1.53;;;9.70;1.00;;;;;;5087734;28;20202;-83
2023/11/09 10:02:54;;;;;;;2.07;1.60;;;9.70;1.00;;;;;;5075283;28;20202;-83
2023/11/09 10:05:24;;;;;;;2.07;1.30;;;9.90;1.00;;;;;;5081832;28;20205;-82
2023/11/09 10:07:58;;;;;;;2.73;1.30;;;9.60;99.90;;;;;;5080647;28;20579;-83
2023/11/09 10:10:26;;;;;;;2.17;1.30;;;9.70;1.00;;;;;;5082681;28;20248;-83
2023/11/09 10:12:55;;;;;;;3.20;1.10;;;9.70;1.00;;;;;;5076525;28;20677;-82
2023/11/09 10:15:24;;;;;;;2.53;1.27;;;9.80;1.00;;;;;;5084760;28;20198;-83
2023/11/09 10:17:51;;;;;;;3.57;1.30;;;9.80;74.00;;;;;;5089863;28;20261;-85
2023/11/09 10:20:20;;;;;;;1.30;1.07;;;9.80;1.00;;;;;;5074821;28;20203;-84
2023/11/09 10:22:50;;;;;;;1.00;1.00;;;9.80;99.90;;;;;;5072383;28;20675;-84
2023/11/09 10:25:18;;;;;;;1.50;1.33;;;9.90;1.00;;;;;;5076889;28;20202;-83
2023/11/09 10:27:47;;;;;;;1.57;1.10;;;9.90;1.00;;;;;;5086502;28;20259;-83
2023/11/09 10:30:16;;;;;;;1.90;1.27;;;9.90;1.00;;;;;;5076634;28;20283;-83
2023/11/09 10:32:44;;;;;;;1.20;1.10;;;9.90;99.90;;;;;;5089989;28;20221;-83
2023/11/09 10:35:13;;;;;;;1.13;1.03;;;9.90;99.90;;;;;;5075021;28;20225;-85
2023/11/09 10:37:42;;;;;;;1.20;1.10;;;10.00;99.90;;;;;;5068402;28;20230;-84
2023/11/09 10:40:13;;;;;;;1.10;1.00;;;10.00;1.00;;;;;;5085857;28;20209;-83
2023/11/09 10:42:40;;;;;;;1.00;0.90;;;10.00;1.00;;;;;;5086562;28;20262;-84
2023/11/09 10:45:10;;;;;;;1.30;1.07;;;10.10;99.90;;;;;;5079639;28;20199;-83
2023/11/09 10:47:41;;;;;;;1.77;1.13;;;10.10;1.00;;;;;;5064387;28;20227;-88
2023/11/09 10:50:13;;;;;;;0.93;0.93;;;10.10;99.90;;;;;;5059688;28;20217;-83
2023/11/09 10:52:43;;;;;;;0.80;0.80;;;10.10;19.40;;;;;;5073819;28;20293;-83
2023/11/09 10:55:16;;;;;;;1.10;1.10;;;10.10;99.90;;;;;;5075345;28;20294;-83
2023/11/09 10:57:47;;;;;;;1.17;1.00;;;10.30;99.90;;;;;;5066813;28;20226;-84
2023/11/09 11:00:31;;;;;;;1.23;1.03;;;10.20;1.00;;;;;;5054648;28;20180;-84
2023/11/09 11:03:09;;;;;;;1.37;1.27;;;10.20;1.00;;;;;;5059924;28;20221;-85
2023/11/09 11:05:41;;;;;;;1.63;1.30;;;10.20;1.00;;;;;;5058454;28;20230;-84
2023/11/09 11:08:12;;;;;;;1.30;1.20;;;10.20;1.00;;;;;;5075806;28;20226;-84
2023/11/09 11:10:46;;;;;;;0.90;0.80;;;10.30;1.00;;;;;;5074736;28;20270;-84
2023/11/09 11:13:17;;;;;;;1.40;1.30;;;10.40;1.00;;;;;;5070386;28;20206;-85
2023/11/09 11:16:16;;;;;;;2.00;1.43;;;10.40;1.00;;;;;;5074637;28;20202;-84
2023/11/09 11:19:07;;;;;;;1.00;1.00;;;10.50;1.00;;;;;;5074896;28;20213;-84
2023/11/09 11:21:52;;;;;;;1.20;1.13;;;10.50;1.00;;;;;;5067295;28;20569;-84
2023/11/09 11:24:45;;;;;;;1.47;1.23;;;10.60;1.00;;;;;;5076308;28;20225;-82
2023/11/09 11:27:16;;;;;;;1.83;1.10;;;10.60;1.00;;;;;;5055566;28;20272;-83
2023/11/09 11:29:43;;;;;;;1.47;1.20;;;10.70;1.00;;;;;;5063311;28;20198;-83
2023/11/09 11:32:13;;;;;;;1.20;1.10;;;10.60;1.00;;;;;;5069893;28;20708;-83
2023/11/09 11:34:47;;;;;;;2.00;1.20;;;10.60;1.00;;;;;;5074760;28;20190;-83
2023/11/09 11:37:22;;;;;;;1.97;1.10;;;10.50;1.00;;;;;;5075362;28;20221;-83
2023/11/09 11:39:48;;;;;;;2.73;1.20;;;10.40;1.00;;;;;;5075183;28;20211;-83
2023/11/09 11:42:18;;;;;;;1.23;1.13;;;10.50;1.00;;;;;;5068352;28;20589;-82
2023/11/09 11:44:52;;;;;;;1.27;1.20;;;10.50;1.00;;;;;;5058105;28;20216;-83
2023/11/09 11:47:20;;;;;;;2.40;1.20;;;10.50;1.00;;;;;;5066664;28;20224;-83
2023/11/09 11:49:48;;;;;;;1.10;1.00;;;10.50;1.00;;;;;;5076206;28;20202;-83
2023/11/09 11:52:19;;;;;;;1.27;1.10;;;10.50;1.00;;;;;;5075880;28;20247;-83
2023/11/09 11:54:46;;;;;;;0.83;0.83;;;10.50;1.00;;;;;;5075820;28;20198;-85
2023/11/09 11:57:15;;;;;;;1.87;0.80;;;10.50;99.90;;;;;;5075219;28;20243;-84
2023/11/09 11:59:44;;;;;;;1.00;1.00;;;10.50;99.90;;;;;;5074977;28;20228;-85
2023/11/09 12:02:12;;;;;;;1.40;1.30;;;10.50;99.90;;;;;;5075355;28;20208;-83
2023/11/09 12:04:46;;;;;;;1.20;1.07;;;10.60;99.90;;;;;;5072855;28;20206;-83
2023/11/09 12:07:18;;;;;;;1.90;1.03;;;10.60;99.90;;;;;;5075503;28;20351;-83
2023/11/09 12:09:47;;;;;;;6.37;1.47;;;10.60;99.90;;;;;;5075284;28;20198;-84
2023/11/09 12:12:15;;;;;;;2.10;1.27;;;10.60;99.90;;;;;;5072869;28;20260;-82
2023/11/09 12:14:45;;;;;;;1.30;1.20;;;10.60;99.90;;;;;;5072046;28;20210;-83
2023/11/09 12:17:12;;;;;;;1.10;1.00;;;10.60;99.90;;;;;;5067894;28;20256;-84
2023/11/09 12:19:42;;;;;;;2.10;1.40;;;10.60;99.90;;;;;;5054739;28;20238;-84
2023/11/09 12:22:09;;;;;;;1.23;1.10;;;10.60;99.90;;;;;;5061438;28;20217;-83
2023/11/09 12:24:36;;;;;;;1.43;1.33;;;10.60;99.90;;;;;;5074751;28;20237;-83
2023/11/09 12:27:05;;;;;;;1.30;0.93;;;10.60;99.90;;;;;;5071526;28;20230;-83
2023/11/09 12:29:33;;;;;;;3.00;1.20;;;10.60;99.90;;;;;;5075820;28;20190;-84
2023/11/09 12:32:01;;;;;;;0.97;0.97;;;10.50;99.90;;;;;;5078911;28;20317;-82
2023/11/09 12:34:29;;;;;;;3.60;1.00;;;10.50;99.90;;;;;;5078740;28;20202;-82
2023/11/09 12:36:57;;;;;;;0.93;0.93;;;10.50;99.90;;;;;;5079856;28;20222;-84
2023/11/09 12:39:30;;;;;;;1.30;1.20;;;10.50;99.90;;;;;;5070838;28;20603;-82
2023/11/09 12:41:57;;;;;;;2.43;1.20;;;10.50;99.90;;;;;;5070242;28;20191;-83
2023/11/09 12:44:25;;;;;;;1.03;1.03;;;10.50;98.20;;;;;;5073596;28;20206;-84
2023/11/09 12:46:54;;;;;;;1.10;1.00;;;10.50;99.90;;;;;;5068681;28;20229;-83
2023/11/09 12:49:23;;;;;;;1.33;1.03;;;10.50;99.90;;;;;;5079437;28;20202;-83
2023/11/09 12:51:51;;;;;;;1.40;1.30;;;10.50;99.90;;;;;;5078379;28;20221;-83
2023/11/09 12:54:19;;;;;;;1.07;1.00;;;10.60;99.90;;;;;;5063585;28;20224;-83
2023/11/09 12:56:48;;;;;;;1.20;1.10;;;10.50;99.90;;;;;;5070259;28;20284;-84
2023/11/09 12:59:24;;;;;;;1.27;1.10;;;10.50;99.90;;;;;;5057202;28;20309;-85
2023/11/09 13:01:51;;;;;;;1.60;1.17;;;10.50;99.90;;;;;;5076876;28;20205;-85
2023/11/09 13:04:21;;;;;;;1.10;1.00;;;10.50;99.90;;;;;;5057321;28;20203;-83
2023/11/09 13:06:50;;;;;;;1.30;1.20;;;10.60;99.90;;;;;;5066299;28;20227;-83
2023/11/09 13:12:26;;;;;;;1.00;1.00;;;10.60;99.90;;;;;;5060443;28;20246;-83
2023/11/09 13:14:48;;;;;;;3.03;0.80;;;10.70;99.90;;;;;;5057066;28;20203;-83